sensor_id;sensor_type;location;lat;lon;timestamp;temperature;humidity
38488;DHT22;57384;51.986;4.458;2024-01-25T00:00:06;8.80;86.80
38488;DHT22;57384;51.986;4.458;2024-01-25T00:03:29;8.80;86.80
38488;DHT22;57384;51.986;4.458;2024-01-25T00:06:09;8.80;86.90
38488;DHT22;57384;51.986;4.458;2024-01-25T00:20:38;8.70;86.90
38488;DHT22;57384;51.986;4.458;2024-01-25T00:23:36;8.70;86.90
38488;DHT22;57384;51.986;4.458;2024-01-25T00:26:39;8.60;86.80
38488;DHT22;57384;51.986;4.458;2024-01-25T00:29:50;8.60;86.80
38488;DHT22;57384;51.986;4.458;2024-01-25T00:33:03;8.60;86.90
38488;DHT22;57384;51.986;4.458;2024-01-25T00:36:27;8.50;86.80
38488;DHT22;57384;51.986;4.458;2024-01-25T00:46:09;8.40;86.90
38488;DHT22;57384;51.986;4.458;2024-01-25T00:49:00;8.40;86.90
38488;DHT22;57384;51.986;4.458;2024-01-25T00:51:50;8.40;86.90
38488;DHT22;57384;51.986;4.458;2024-01-25T00:54:59;8.40;87.00
38488;DHT22;57384;51.986;4.458;2024-01-25T01:01:24;8.30;86.90
38488;DHT22;57384;51.986;4.458;2024-01-25T01:04:12;8.30;87.00
38488;DHT22;57384;51.986;4.458;2024-01-25T01:07:17;8.30;87.00
38488;DHT22;57384;51.986;4.458;2024-01-25T01:16:47;8.20;87.00
38488;DHT22;57384;51.986;4.458;2024-01-25T01:19:39;8.20;87.00
38488;DHT22;57384;51.986;4.458;2024-01-25T01:23:05;8.10;87.00
38488;DHT22;57384;51.986;4.458;2024-01-25T01:26:13;8.10;87.00
38488;DHT22;57384;51.986;4.458;2024-01-25T01:29:13;8.10;87.00
38488;DHT22;57384;51.986;4.458;2024-01-25T01:35:03;8.10;87.00
38488;DHT22;57384;51.986;4.458;2024-01-25T01:37:53;8.10;87.00
38488;DHT22;57384;51.986;4.458;2024-01-25T01:40:49;8.00;87.00
38488;DHT22;57384;51.986;4.458;2024-01-25T01:43:56;8.00;87.00
38488;DHT22;57384;51.986;4.458;2024-01-25T01:46:43;8.00;87.10
38488;DHT22;57384;51.986;4.458;2024-01-25T01:49:28;8.00;87.10
38488;DHT22;57384;51.986;4.458;2024-01-25T01:52:38;7.90;87.00
38488;DHT22;57384;51.986;4.458;2024-01-25T01:55:33;8.00;87.10
38488;DHT22;57384;51.986;4.458;2024-01-25T01:58:39;7.90;87.00
38488;DHT22;57384;51.986;4.458;2024-01-25T02:01:31;7.90;87.10
38488;DHT22;57384;51.986;4.458;2024-01-25T02:04:57;7.90;87.10
38488;DHT22;57384;51.986;4.458;2024-01-25T02:07:32;7.80;87.10
38488;DHT22;57384;51.986;4.458;2024-01-25T02:10:28;7.80;87.10
38488;DHT22;57384;51.986;4.458;2024-01-25T02:13:31;7.80;87.20
38488;DHT22;57384;51.986;4.458;2024-01-25T02:16:31;7.70;87.10
38488;DHT22;57384;51.986;4.458;2024-01-25T02:19:27;7.80;87.20
38488;DHT22;57384;51.986;4.458;2024-01-25T02:25:39;7.70;87.20
38488;DHT22;57384;51.986;4.458;2024-01-25T02:28:34;7.70;87.20
38488;DHT22;57384;51.986;4.458;2024-01-25T02:31:40;7.70;87.20
38488;DHT22;57384;51.986;4.458;2024-01-25T02:37:58;7.60;87.20
38488;DHT22;57384;51.986;4.458;2024-01-25T02:40:57;7.60;87.20
38488;DHT22;57384;51.986;4.458;2024-01-25T02:50:19;7.50;87.20
38488;DHT22;57384;51.986;4.458;2024-01-25T02:53:14;7.50;87.20
38488;DHT22;57384;51.986;4.458;2024-01-25T02:56:12;7.40;87.20
38488;DHT22;57384;51.986;4.458;2024-01-25T03:02:51;7.40;87.30
38488;DHT22;57384;51.986;4.458;2024-01-25T03:05:49;7.40;87.30
38488;DHT22;57384;51.986;4.458;2024-01-25T03:08:38;7.30;87.20
38488;DHT22;57384;51.986;4.458;2024-01-25T03:11:49;7.30;87.20
38488;DHT22;57384;51.986;4.458;2024-01-25T03:14:51;7.30;87.30
38488;DHT22;57384;51.986;4.458;2024-01-25T03:17:39;7.30;87.40
38488;DHT22;57384;51.986;4.458;2024-01-25T03:20:26;7.20;87.30
38488;DHT22;57384;51.986;4.458;2024-01-25T03:23:12;7.30;87.40
38488;DHT22;57384;51.986;4.458;2024-01-25T03:26:12;7.20;87.30
38488;DHT22;57384;51.986;4.458;2024-01-25T03:29:38;7.20;87.40
38488;DHT22;57384;51.986;4.458;2024-01-25T03:32:54;7.10;87.30
38488;DHT22;57384;51.986;4.458;2024-01-25T03:35:49;7.00;87.20
38488;DHT22;57384;51.986;4.458;2024-01-25T03:39:02;7.00;87.20
38488;DHT22;57384;51.986;4.458;2024-01-25T03:42:06;7.00;87.30
38488;DHT22;57384;51.986;4.458;2024-01-25T03:47:57;6.90;87.30
38488;DHT22;57384;51.986;4.458;2024-01-25T03:50:44;6.90;87.40
38488;DHT22;57384;51.986;4.458;2024-01-25T03:53:29;6.80;87.30
38488;DHT22;57384;51.986;4.458;2024-01-25T03:56:14;6.80;87.30
38488;DHT22;57384;51.986;4.458;2024-01-25T03:59:21;6.80;87.40
38488;DHT22;57384;51.986;4.458;2024-01-25T04:02:09;6.70;87.40
38488;DHT22;57384;51.986;4.458;2024-01-25T04:05:07;6.70;87.30
38488;DHT22;57384;51.986;4.458;2024-01-25T04:11:14;6.60;87.30
38488;DHT22;57384;51.986;4.458;2024-01-25T04:14:09;6.60;87.30
38488;DHT22;57384;51.986;4.458;2024-01-25T04:17:05;6.50;87.30
38488;DHT22;57384;51.986;4.458;2024-01-25T04:20:07;6.50;87.40
38488;DHT22;57384;51.986;4.458;2024-01-25T04:22:55;6.50;87.40
38488;DHT22;57384;51.986;4.458;2024-01-25T04:26:21;6.40;87.30
38488;DHT22;57384;51.986;4.458;2024-01-25T04:29:14;6.40;87.40
38488;DHT22;57384;51.986;4.458;2024-01-25T04:32:32;6.30;87.30
38488;DHT22;57384;51.986;4.458;2024-01-25T04:35:21;6.30;87.30
38488;DHT22;57384;51.986;4.458;2024-01-25T04:38:06;6.30;87.30
38488;DHT22;57384;51.986;4.458;2024-01-25T04:40:55;6.30;87.30
38488;DHT22;57384;51.986;4.458;2024-01-25T04:43:44;6.20;87.40
38488;DHT22;57384;51.986;4.458;2024-01-25T04:46:42;6.20;87.30
38488;DHT22;57384;51.986;4.458;2024-01-25T04:49:38;6.20;87.40
38488;DHT22;57384;51.986;4.458;2024-01-25T04:52:46;6.10;87.30
38488;DHT22;57384;51.986;4.458;2024-01-25T04:55:41;6.10;87.30
38488;DHT22;57384;51.986;4.458;2024-01-25T04:58:34;6.10;87.40
38488;DHT22;57384;51.986;4.458;2024-01-25T05:01:24;6.00;87.40
38488;DHT22;57384;51.986;4.458;2024-01-25T05:04:26;6.00;87.40
38488;DHT22;57384;51.986;4.458;2024-01-25T05:07:14;6.00;87.40
38488;DHT22;57384;51.986;4.458;2024-01-25T05:10:04;5.90;87.30
38488;DHT22;57384;51.986;4.458;2024-01-25T05:13:11;5.90;87.40
38488;DHT22;57384;51.986;4.458;2024-01-25T05:19:23;5.80;87.40
38488;DHT22;57384;51.986;4.458;2024-01-25T05:22:20;5.80;87.40
38488;DHT22;57384;51.986;4.458;2024-01-25T05:25:10;5.80;87.40
38488;DHT22;57384;51.986;4.458;2024-01-25T05:27:58;5.70;87.40
38488;DHT22;57384;51.986;4.458;2024-01-25T05:30:42;5.80;87.40
38488;DHT22;57384;51.986;4.458;2024-01-25T05:33:31;5.70;87.40
38488;DHT22;57384;51.986;4.458;2024-01-25T05:36:26;5.60;87.30
38488;DHT22;57384;51.986;4.458;2024-01-25T05:39:10;5.60;87.40
38488;DHT22;57384;51.986;4.458;2024-01-25T05:42:08;5.40;87.30
38488;DHT22;57384;51.986;4.458;2024-01-25T05:44:55;5.50;87.40
38488;DHT22;57384;51.986;4.458;2024-01-25T05:50:44;5.50;87.50
38488;DHT22;57384;51.986;4.458;2024-01-25T05:53:49;5.50;87.50
38488;DHT22;57384;51.986;4.458;2024-01-25T06:00:12;5.40;87.40
38488;DHT22;57384;51.986;4.458;2024-01-25T06:03:19;5.40;87.40
38488;DHT22;57384;51.986;4.458;2024-01-25T06:06:25;5.40;87.50
38488;DHT22;57384;51.986;4.458;2024-01-25T06:09:10;5.40;87.50
38488;DHT22;57384;51.986;4.458;2024-01-25T06:11:58;5.30;87.40
38488;DHT22;57384;51.986;4.458;2024-01-25T06:15:10;5.30;87.50
38488;DHT22;57384;51.986;4.458;2024-01-25T06:18:17;5.30;87.50
38488;DHT22;57384;51.986;4.458;2024-01-25T06:24:34;5.30;87.50
38488;DHT22;57384;51.986;4.458;2024-01-25T06:27:31;5.20;87.50
38488;DHT22;57384;51.986;4.458;2024-01-25T06:43:09;5.00;87.50
38488;DHT22;57384;51.986;4.458;2024-01-25T06:46:02;5.00;87.50
38488;DHT22;57384;51.986;4.458;2024-01-25T06:49:03;5.00;87.60
38488;DHT22;57384;51.986;4.458;2024-01-25T06:52:33;5.00;87.60
38488;DHT22;57384;51.986;4.458;2024-01-25T06:55:09;5.00;87.60
38488;DHT22;57384;51.986;4.458;2024-01-25T06:58:07;4.90;87.60
38488;DHT22;57384;51.986;4.458;2024-01-25T07:04:03;4.90;87.60
38488;DHT22;57384;51.986;4.458;2024-01-25T07:10:15;4.90;87.70
38488;DHT22;57384;51.986;4.458;2024-01-25T07:13:17;4.90;87.70
38488;DHT22;57384;51.986;4.458;2024-01-25T07:16:07;4.80;87.60
38488;DHT22;57384;51.986;4.458;2024-01-25T07:18:51;4.90;87.70
38488;DHT22;57384;51.986;4.458;2024-01-25T07:21:38;4.80;87.60
38488;DHT22;57384;51.986;4.458;2024-01-25T07:24:57;4.90;87.80
38488;DHT22;57384;51.986;4.458;2024-01-25T07:27:53;4.80;87.80
38488;DHT22;57384;51.986;4.458;2024-01-25T07:31:02;4.80;87.70
38488;DHT22;57384;51.986;4.458;2024-01-25T07:34:12;4.80;87.70
38488;DHT22;57384;51.986;4.458;2024-01-25T07:37:22;4.70;87.70
38488;DHT22;57384;51.986;4.458;2024-01-25T07:40:41;4.80;87.80
38488;DHT22;57384;51.986;4.458;2024-01-25T07:43:47;4.80;87.80
38488;DHT22;57384;51.986;4.458;2024-01-25T07:46:31;4.80;87.90
38488;DHT22;57384;51.986;4.458;2024-01-25T07:49:24;4.90;87.80
38488;DHT22;57384;51.986;4.458;2024-01-25T07:52:17;4.80;87.90
38488;DHT22;57384;51.986;4.458;2024-01-25T07:55:30;4.80;87.90
38488;DHT22;57384;51.986;4.458;2024-01-25T07:58:25;4.80;88.00
38488;DHT22;57384;51.986;4.458;2024-01-25T08:01:12;4.80;87.90
38488;DHT22;57384;51.986;4.458;2024-01-25T08:07:26;4.80;88.00
38488;DHT22;57384;51.986;4.458;2024-01-25T08:10:33;4.80;88.10
38488;DHT22;57384;51.986;4.458;2024-01-25T08:13:38;4.80;88.10
38488;DHT22;57384;51.986;4.458;2024-01-25T08:16:37;4.90;88.20
38488;DHT22;57384;51.986;4.458;2024-01-25T08:19:41;4.90;88.20
38488;DHT22;57384;51.986;4.458;2024-01-25T08:22:46;4.90;88.20
38488;DHT22;57384;51.986;4.458;2024-01-25T08:25:44;4.90;88.30
38488;DHT22;57384;51.986;4.458;2024-01-25T08:28:45;4.90;88.20
38488;DHT22;57384;51.986;4.458;2024-01-25T08:41:36;5.00;88.40
38488;DHT22;57384;51.986;4.458;2024-01-25T08:44:45;5.00;88.40
38488;DHT22;57384;51.986;4.458;2024-01-25T08:47:53;5.00;88.50
38488;DHT22;57384;51.986;4.458;2024-01-25T08:50:55;5.10;88.70
38488;DHT22;57384;51.986;4.458;2024-01-25T09:04:15;5.20;88.80
38488;DHT22;57384;51.986;4.458;2024-01-25T09:10:51;5.30;88.90
38488;DHT22;57384;51.986;4.458;2024-01-25T09:14:20;5.30;89.00
38488;DHT22;57384;51.986;4.458;2024-01-25T09:21:02;5.40;89.10
38488;DHT22;57384;51.986;4.458;2024-01-25T09:27:25;5.40;89.10
38488;DHT22;57384;51.986;4.458;2024-01-25T09:33:50;5.50;89.20
38488;DHT22;57384;51.986;4.458;2024-01-25T09:43:49;5.70;89.40
38488;DHT22;57384;51.986;4.458;2024-01-25T09:50:55;5.90;89.50
38488;DHT22;57384;51.986;4.458;2024-01-25T10:32:17;6.40;89.60
38488;DHT22;57384;51.986;4.458;2024-01-25T10:38:36;6.40;89.80
38488;DHT22;57384;51.986;4.458;2024-01-25T10:45:36;6.50;90.00
38488;DHT22;57384;51.986;4.458;2024-01-25T10:48:43;6.60;90.00
38488;DHT22;57384;51.986;4.458;2024-01-25T10:52:00;6.70;90.00
38488;DHT22;57384;51.986;4.458;2024-01-25T11:17:14;7.00;90.10
38488;DHT22;57384;51.986;4.458;2024-01-25T11:46:21;7.50;90.30
38488;DHT22;57384;51.986;4.458;2024-01-25T15:28:52;10.10;90.00
38488;DHT22;57384;51.986;4.458;2024-01-25T15:31:45;10.10;90.00
38488;DHT22;57384;51.986;4.458;2024-01-25T15:49:19;10.10;90.30
38488;DHT22;57384;51.986;4.458;2024-01-25T16:14:08;10.10;90.20
38488;DHT22;57384;51.986;4.458;2024-01-25T16:17:34;10.10;90.10
38488;DHT22;57384;51.986;4.458;2024-01-25T16:20:31;10.10;90.20
38488;DHT22;57384;51.986;4.458;2024-01-25T16:23:41;10.10;90.20
38488;DHT22;57384;51.986;4.458;2024-01-25T16:30:06;10.10;90.20
38488;DHT22;57384;51.986;4.458;2024-01-25T16:33:08;10.10;90.20
38488;DHT22;57384;51.986;4.458;2024-01-25T16:35:53;10.10;90.20
38488;DHT22;57384;51.986;4.458;2024-01-25T16:38:37;10.20;90.20
38488;DHT22;57384;51.986;4.458;2024-01-25T16:41:21;10.20;90.30
38488;DHT22;57384;51.986;4.458;2024-01-25T16:44:11;10.20;90.30
38488;DHT22;57384;51.986;4.458;2024-01-25T16:47:36;10.20;90.30
38488;DHT22;57384;51.986;4.458;2024-01-25T16:50:23;10.20;90.30
38488;DHT22;57384;51.986;4.458;2024-01-25T16:53:07;10.10;90.30
38488;DHT22;57384;51.986;4.458;2024-01-25T16:59:00;10.20;90.40
38488;DHT22;57384;51.986;4.458;2024-01-25T17:01:50;10.20;90.40
38488;DHT22;57384;51.986;4.458;2024-01-25T17:04:46;10.20;90.40
38488;DHT22;57384;51.986;4.458;2024-01-25T17:07:34;10.20;90.40
38488;DHT22;57384;51.986;4.458;2024-01-25T17:10:18;10.20;90.40
38488;DHT22;57384;51.986;4.458;2024-01-25T17:13:03;10.20;90.40
38488;DHT22;57384;51.986;4.458;2024-01-25T17:15:50;10.20;90.40
38488;DHT22;57384;51.986;4.458;2024-01-25T17:18:44;10.20;90.50
38488;DHT22;57384;51.986;4.458;2024-01-25T17:21:28;10.20;90.50
38488;DHT22;57384;51.986;4.458;2024-01-25T17:24:27;10.20;90.50
38488;DHT22;57384;51.986;4.458;2024-01-25T17:27:23;10.20;90.50
38488;DHT22;57384;51.986;4.458;2024-01-25T17:30:11;10.20;90.50
38488;DHT22;57384;51.986;4.458;2024-01-25T17:33:07;10.20;90.50
38488;DHT22;57384;51.986;4.458;2024-01-25T17:39:30;10.20;90.50
38488;DHT22;57384;51.986;4.458;2024-01-25T17:42:17;10.20;90.60
38488;DHT22;57384;51.986;4.458;2024-01-25T17:45:08;10.20;90.60
38488;DHT22;57384;51.986;4.458;2024-01-25T17:48:03;10.20;90.60
38488;DHT22;57384;51.986;4.458;2024-01-25T17:50:50;10.20;90.60
38488;DHT22;57384;51.986;4.458;2024-01-25T17:53:43;10.20;90.60
38488;DHT22;57384;51.986;4.458;2024-01-25T17:56:49;10.30;90.70
38488;DHT22;57384;51.986;4.458;2024-01-25T17:59:37;10.30;90.70
38488;DHT22;57384;51.986;4.458;2024-01-25T18:05:29;10.30;90.70
38488;DHT22;57384;51.986;4.458;2024-01-25T18:08:19;10.30;90.70
38488;DHT22;57384;51.986;4.458;2024-01-25T18:11:11;10.30;90.70
38488;DHT22;57384;51.986;4.458;2024-01-25T18:13:58;10.30;90.70
38488;DHT22;57384;51.986;4.458;2024-01-25T18:16:44;10.30;90.70
38488;DHT22;57384;51.986;4.458;2024-01-25T18:19:40;10.30;90.70
38488;DHT22;57384;51.986;4.458;2024-01-25T18:22:32;10.30;90.70
38488;DHT22;57384;51.986;4.458;2024-01-25T18:25:49;10.30;90.70
38488;DHT22;57384;51.986;4.458;2024-01-25T18:28:44;10.40;90.80
38488;DHT22;57384;51.986;4.458;2024-01-25T18:35:01;10.40;90.80
38488;DHT22;57384;51.986;4.458;2024-01-25T18:38:10;10.30;90.70
38488;DHT22;57384;51.986;4.458;2024-01-25T18:40:59;10.30;90.80
38488;DHT22;57384;51.986;4.458;2024-01-25T18:44:03;10.30;90.80
38488;DHT22;57384;51.986;4.458;2024-01-25T18:46:50;10.30;90.80
38488;DHT22;57384;51.986;4.458;2024-01-25T18:49:37;10.40;90.80
38488;DHT22;57384;51.986;4.458;2024-01-25T18:52:31;10.40;90.80
38488;DHT22;57384;51.986;4.458;2024-01-25T18:55:20;10.40;90.90
38488;DHT22;57384;51.986;4.458;2024-01-25T18:58:41;10.40;90.90
38488;DHT22;57384;51.986;4.458;2024-01-25T19:01:48;10.40;90.90
38488;DHT22;57384;51.986;4.458;2024-01-25T19:05:11;10.40;90.90
38488;DHT22;57384;51.986;4.458;2024-01-25T19:07:57;10.40;90.80
38488;DHT22;57384;51.986;4.458;2024-01-25T19:10:44;10.40;90.80
38488;DHT22;57384;51.986;4.458;2024-01-25T19:13:52;10.40;90.90
38488;DHT22;57384;51.986;4.458;2024-01-25T19:16:46;10.50;90.90
38488;DHT22;57384;51.986;4.458;2024-01-25T19:25:44;10.50;90.80
38488;DHT22;57384;51.986;4.458;2024-01-25T19:28:39;10.50;90.90
38488;DHT22;57384;51.986;4.458;2024-01-25T19:31:27;10.50;90.90
38488;DHT22;57384;51.986;4.458;2024-01-25T19:34:25;10.60;90.90
38488;DHT22;57384;51.986;4.458;2024-01-25T19:40:49;10.60;91.00
38488;DHT22;57384;51.986;4.458;2024-01-25T19:47:03;10.60;91.00
38488;DHT22;57384;51.986;4.458;2024-01-25T19:49:59;10.60;90.90
38488;DHT22;57384;51.986;4.458;2024-01-25T19:52:55;10.60;91.00
38488;DHT22;57384;51.986;4.458;2024-01-25T19:55:49;10.60;91.00
38488;DHT22;57384;51.986;4.458;2024-01-25T20:02:35;10.60;91.00
38488;DHT22;57384;51.986;4.458;2024-01-25T20:11:50;10.70;91.00
38488;DHT22;57384;51.986;4.458;2024-01-25T20:14:37;10.70;91.00
38488;DHT22;57384;51.986;4.458;2024-01-25T20:17:37;10.70;91.00
38488;DHT22;57384;51.986;4.458;2024-01-25T20:20:54;10.70;91.00
38488;DHT22;57384;51.986;4.458;2024-01-25T20:23:41;10.70;91.10
38488;DHT22;57384;51.986;4.458;2024-01-25T20:26:25;10.70;91.00
38488;DHT22;57384;51.986;4.458;2024-01-25T20:29:29;10.70;91.00
38488;DHT22;57384;51.986;4.458;2024-01-25T20:32:21;10.80;91.10
38488;DHT22;57384;51.986;4.458;2024-01-25T20:35:13;10.80;91.10
38488;DHT22;57384;51.986;4.458;2024-01-25T20:38:07;10.80;91.10
38488;DHT22;57384;51.986;4.458;2024-01-25T20:41:18;10.80;91.10
38488;DHT22;57384;51.986;4.458;2024-01-25T20:44:11;10.80;91.20
38488;DHT22;57384;51.986;4.458;2024-01-25T20:47:07;10.80;91.10
38488;DHT22;57384;51.986;4.458;2024-01-25T20:50:11;10.80;91.10
38488;DHT22;57384;51.986;4.458;2024-01-25T20:53:05;10.80;91.10
38488;DHT22;57384;51.986;4.458;2024-01-25T20:55:53;10.80;91.10
38488;DHT22;57384;51.986;4.458;2024-01-25T21:02:26;10.80;91.10
38488;DHT22;57384;51.986;4.458;2024-01-25T21:09:10;10.80;91.10
38488;DHT22;57384;51.986;4.458;2024-01-25T21:12:13;10.80;91.10
38488;DHT22;57384;51.986;4.458;2024-01-25T21:14:58;10.90;91.20
38488;DHT22;57384;51.986;4.458;2024-01-25T21:17:51;10.80;91.10
38488;DHT22;57384;51.986;4.458;2024-01-25T21:24:17;10.90;91.10
38488;DHT22;57384;51.986;4.458;2024-01-25T21:27:22;10.90;91.20
38488;DHT22;57384;51.986;4.458;2024-01-25T21:33:22;10.90;91.20
38488;DHT22;57384;51.986;4.458;2024-01-25T21:42:30;10.90;91.20
38488;DHT22;57384;51.986;4.458;2024-01-25T21:45:38;10.90;91.20
38488;DHT22;57384;51.986;4.458;2024-01-25T21:48:32;10.90;91.20
38488;DHT22;57384;51.986;4.458;2024-01-25T21:51:50;10.90;91.20
38488;DHT22;57384;51.986;4.458;2024-01-25T21:54:59;10.90;91.20
38488;DHT22;57384;51.986;4.458;2024-01-25T21:57:48;11.00;91.50
38488;DHT22;57384;51.986;4.458;2024-01-25T22:04:51;10.80;91.20
38488;DHT22;57384;51.986;4.458;2024-01-25T22:08:07;10.90;91.20
38488;DHT22;57384;51.986;4.458;2024-01-25T22:14:34;11.00;91.30
38488;DHT22;57384;51.986;4.458;2024-01-25T22:17:44;10.90;91.20
38488;DHT22;57384;51.986;4.458;2024-01-25T22:24:06;10.90;91.20
38488;DHT22;57384;51.986;4.458;2024-01-25T22:34:03;11.00;91.20
38488;DHT22;57384;51.986;4.458;2024-01-25T22:36:52;10.90;91.20
38488;DHT22;57384;51.986;4.458;2024-01-25T22:40:21;10.90;91.20
38488;DHT22;57384;51.986;4.458;2024-01-25T22:49:37;11.00;91.20
38488;DHT22;57384;51.986;4.458;2024-01-25T22:52:40;11.00;91.30
38488;DHT22;57384;51.986;4.458;2024-01-25T22:55:29;11.00;91.30
38488;DHT22;57384;51.986;4.458;2024-01-25T22:58:31;11.00;91.30
38488;DHT22;57384;51.986;4.458;2024-01-25T23:05:23;11.00;91.30
38488;DHT22;57384;51.986;4.458;2024-01-25T23:08:30;11.00;91.30
38488;DHT22;57384;51.986;4.458;2024-01-25T23:11:25;11.00;91.30
38488;DHT22;57384;51.986;4.458;2024-01-25T23:14:40;11.00;91.30
38488;DHT22;57384;51.986;4.458;2024-01-25T23:17:27;11.00;91.30
38488;DHT22;57384;51.986;4.458;2024-01-25T23:20:22;11.00;91.20
38488;DHT22;57384;51.986;4.458;2024-01-25T23:33:36;11.00;91.20
38488;DHT22;57384;51.986;4.458;2024-01-25T23:36:53;11.00;91.20
38488;DHT22;57384;51.986;4.458;2024-01-25T23:39:56;11.00;91.20
38488;DHT22;57384;51.986;4.458;2024-01-25T23:42:45;11.00;91.20
38488;DHT22;57384;51.986;4.458;2024-01-25T23:48:46;11.00;91.20
38488;DHT22;57384;51.986;4.458;2024-01-25T23:51:32;11.00;91.20
38488;DHT22;57384;51.986;4.458;2024-01-25T23:54:45;11.00;91.20
38488;DHT22;57384;51.986;4.458;2024-01-25T23:57:33;11.10;91.20
